Time;durP1;ratioP1;P1;durP2;ratioP2;P2;SDS_P1;SDS_P2;PMS_P1;PMS_P2;Temp;Humidity;BMP_temperature;BMP_pressure;BME280_temperature;BME280_humidity;BME280_pressure;Samples;Min_cycle;Max_cycle;Signal;HPM_P1;HPM_P2
2022/12/12 00:02:36;;;;;;;32.13;15.85;;;;;;;-0.78;100.00;99782.69;6226551;23;20051;-96
2022/12/12 00:05:20;;;;;;;35.38;16.30;;;;;;;-0.61;100.00;99795.88;6226943;23;20339;-96
2022/12/12 00:08:04;;;;;;;33.58;16.17;;;;;;;-0.72;100.00;99780.03;6225359;23;20085;-96
2022/12/12 00:10:35;;;;;;;38.47;18.05;;;;;;;-0.67;100.00;99806.13;6224987;23;20011;-96
2022/12/12 00:13:17;;;;;;;35.83;18.20;;;;;;;-0.93;100.00;99764.41;6224969;23;20024;-96
2022/12/12 00:16:24;;;;;;;35.60;17.00;;;;;;;-0.93;100.00;99761.88;6249460;22;20008;-96
2022/12/12 00:18:58;;;;;;;30.50;14.95;;;;;;;-0.91;100.00;99772.81;6224096;23;20008;-96
2022/12/12 00:21:45;;;;;;;35.47;16.13;;;;;;;-0.81;100.00;99798.81;6224833;23;20004;-96
2022/12/12 00:24:28;;;;;;;31.88;16.25;;;;;;;-0.77;100.00;99809.72;6225923;23;19996;-96
2022/12/12 00:27:08;;;;;;;36.03;17.40;;;;;;;-1.20;100.00;99772.59;6226374;23;20100;-96
2022/12/12 00:29:49;;;;;;;37.33;15.73;;;;;;;-1.12;100.00;99764.00;6225489;23;20004;-96
2022/12/12 00:32:18;;;;;;;;;;;;;;;-0.93;100.00;99799.88;6227331;23;19996;-96
2022/12/12 00:35:02;;;;;;;30.52;14.73;;;;;;;-1.09;100.00;99769.00;6226755;22;19912;-96
2022/12/12 00:37:50;;;;;;;30.23;14.88;;;;;;;-0.92;100.00;99799.03;6228280;23;20004;-96
2022/12/12 00:43:21;;;;;;;33.67;15.35;;;;;;;-1.13;100.00;99772.44;6254060;23;20092;-96
2022/12/12 00:46:34;;;;;;;;;;;;;;;;;;;;;
2022/12/12 00:49:40;;;;;;;32.53;16.00;;;;;;;-1.10;100.00;99781.66;6254364;23;20012;-96
2022/12/12 00:52:31;;;;;;;32.22;15.65;;;;;;;-1.07;100.00;99774.03;6212787;23;20008;-96
2022/12/12 00:55:23;;;;;;;29.95;14.80;;;;;;;-1.15;100.00;99769.09;6227130;23;20030;-96
2022/12/12 00:58:23;;;;;;;31.10;15.20;;;;;;;-1.09;100.00;99768.16;6219193;23;20051;-96
2022/12/12 01:01:34;;;;;;;31.75;14.80;;;;;;;-1.01;100.00;99768.81;6252680;23;20008;-96
2022/12/12 01:04:32;;;;;;;28.48;14.52;;;;;;;-1.10;100.00;99786.75;6229493;23;20069;-96
2022/12/12 01:10:45;;;;;;;29.75;15.60;;;;;;;-1.24;100.00;99776.03;6163606;23;20005;-96
2022/12/12 01:16:43;;;;;;;32.13;15.75;;;;;;;-1.12;100.00;99783.44;6047379;23;20007;-96
2022/12/12 01:20:07;;;;;;;;;;;;;;;;;;;;;
2022/12/12 01:22:48;;;;;;;30.85;15.63;;;;;;;-1.09;100.00;99808.69;6243074;23;20012;-95
2022/12/12 01:25:41;;;;;;;34.65;16.05;;;;;;;-1.04;100.00;99801.00;6224561;23;20004;-95
2022/12/12 01:31:34;;;;;;;28.60;14.90;;;;;;;-1.18;100.00;99791.13;6255449;23;20012;-96
2022/12/12 01:41:53;;;;;;;28.65;14.00;;;;;;;-1.05;100.00;99812.81;6256942;23;20016;-96
2022/12/12 01:44:57;;;;;;;26.67;13.75;;;;;;;-1.12;100.00;99816.34;6253624;23;20008;-96
2022/12/12 01:47:47;;;;;;;;;;;;;;;;;;;;;
2022/12/12 01:50:57;;;;;;;30.73;15.00;;;;;;;-1.08;100.00;99816.22;6256528;23;20016;-96
2022/12/12 01:53:43;;;;;;;;;;;;;;;;;;;;;
2022/12/12 02:00:10;;;;;;;27.52;13.70;;;;;;;-1.14;100.00;99821.44;6235944;23;20003;-96
2022/12/12 02:02:51;;;;;;;;;;;;;;;;;;;;;
2022/12/12 02:05:34;;;;;;;29.92;14.75;;;;;;;-1.19;100.00;99822.41;6254820;22;20107;-96
2022/12/12 02:08:42;;;;;;;;;;;;;;;;;;;;;
2022/12/12 02:12:11;;;;;;;29.70;14.23;;;;;;;-1.09;100.00;99818.81;6254828;23;20024;-96
2022/12/12 02:15:17;;;;;;;;;;;;;;;;;;;;;
2022/12/12 02:18:35;;;;;;;30.05;15.10;;;;;;;-1.31;100.00;99798.97;6233492;23;20039;-96
2022/12/12 02:21:19;;;;;;;27.23;13.48;;;;;;;-1.22;100.00;99822.44;6227673;23;20330;-95
2022/12/12 02:24:27;;;;;;;31.75;13.90;;;;;;;-1.33;100.00;99826.00;6227959;23;20063;-95
2022/12/12 02:27:57;;;;;;;;;;;;;;;;;;;;;
2022/12/12 02:34:05;;;;;;;30.60;14.40;;;;;;;-1.37;100.00;99831.97;6252855;23;20031;-96
2022/12/12 02:37:41;;;;;;;;;;;;;;;;;;;;;
2022/12/12 02:51:19;;;;;;;33.45;16.25;;;;;;;-1.37;100.00;99806.66;6044249;23;20545;-96
2022/12/12 02:54:25;;;;;;;30.38;14.43;;;;;;;-1.09;100.00;99834.84;6013885;23;20010;-94
2022/12/12 02:57:17;;;;;;;29.77;15.65;;;;;;;-1.31;100.00;99801.50;6074179;23;20045;-95
2022/12/12 03:00:02;;;;;;;32.80;16.60;;;;;;;-1.34;100.00;99804.09;6078760;23;20006;-95
2022/12/12 03:02:42;;;;;;;30.23;16.48;;;;;;;-1.25;100.00;99819.97;6119897;23;20018;-95
2022/12/12 03:08:34;;;;;;;37.40;17.23;;;;;;;-1.31;100.00;99819.22;6251769;23;20038;-95
2022/12/12 03:11:40;;;;;;;37.38;17.70;;;;;;;-1.39;100.00;99793.22;6225789;23;20434;-95
2022/12/12 03:14:17;;;;;;;36.25;16.25;;;;;;;-1.14;100.00;99803.72;6199668;23;20024;-96
2022/12/12 03:17:00;;;;;;;30.98;15.10;;;;;;;-1.31;100.00;99783.78;6224898;23;20036;-94
2022/12/12 03:19:42;;;;;;;34.30;16.17;;;;;;;-1.37;100.00;99778.00;6223740;23;20008;-96
2022/12/12 03:22:35;;;;;;;33.22;15.77;;;;;;;-1.10;100.00;99817.13;6225304;23;20000;-95
2022/12/12 03:25:51;;;;;;;28.15;13.95;;;;;;;-1.32;100.00;99771.13;6224672;23;20004;-96
2022/12/12 03:28:28;;;;;;;32.53;14.88;;;;;;;-1.16;100.00;99812.19;6198396;23;20516;-96
2022/12/12 03:31:13;;;;;;;35.85;15.68;;;;;;;-1.47;100.00;99787.47;6225281;23;20011;-95
2022/12/12 03:34:00;;;;;;;35.83;16.23;;;;;;;-1.45;100.00;99803.44;6225937;23;20069;-96
2022/12/12 03:36:50;;;;;;;;;;;;;;;;;;;;;
2022/12/12 03:39:57;;;;;;;35.42;16.38;;;;;;;-1.22;100.00;99804.72;6251882;23;20027;-96
2022/12/12 03:43:04;;;;;;;35.80;16.45;;;;;;;-1.54;100.00;99760.59;6223061;23;20036;-94
2022/12/12 03:45:55;;;;;;;36.65;16.08;;;;;;;-1.53;100.00;99764.81;6223617;23;20024;-95
2022/12/12 03:48:35;;;;;;;39.50;17.02;;;;;;;-1.42;100.00;99807.63;6225683;23;20027;-94
2022/12/12 03:51:29;;;;;;;37.92;16.17;;;;;;;-1.52;100.00;99800.19;6225104;23;20000;-94
2022/12/12 03:54:27;;;;;;;37.05;15.98;;;;;;;-1.48;100.00;99810.28;6222731;23;20008;-95
2022/12/12 03:57:13;;;;;;;34.10;15.50;;;;;;;-1.71;100.00;99773.56;6223996;23;20004;-96
2022/12/12 03:59:57;;;;;;;36.58;16.20;;;;;;;-1.43;100.00;99771.34;6222928;23;20036;-96
2022/12/12 04:02:43;;;;;;;43.38;17.30;;;;;;;-1.46;100.00;99773.09;6222113;23;20032;-96
2022/12/12 04:05:38;;;;;;;44.67;18.40;;;;;;;-1.55;100.00;99774.94;6224495;23;20402;-96
2022/12/12 04:08:29;;;;;;;38.40;17.00;;;;;;;-1.32;100.00;99826.84;6224944;23;20035;-94
2022/12/12 04:14:33;;;;;;;41.75;17.65;;;;;;;-1.42;100.00;99823.63;6249476;23;20097;-95
2022/12/12 04:17:13;;;;;;;43.50;16.13;;;;;;;-1.61;100.00;99776.75;6209785;23;20032;-94
2022/12/12 04:23:47;;;;;;;39.15;16.45;;;;;;;-1.60;100.00;99775.91;6251553;23;20035;-96
2022/12/12 04:29:24;;;;;;;39.55;16.38;;;;;;;-1.28;100.00;99812.44;6249684;23;20035;-95
2022/12/12 04:32:37;;;;;;;;;;;;;;;;;;;;;
2022/12/12 04:35:39;;;;;;;41.75;17.40;;;;;;;-1.14;100.00;99813.84;6243277;22;20035;-94
2022/12/12 04:38:20;;;;;;;36.65;16.38;;;;;;;-1.12;100.00;99813.81;6225740;23;20031;-96
2022/12/12 04:41:07;;;;;;;39.38;16.70;;;;;;;-1.35;100.00;99781.34;6225397;23;20009;-96
2022/12/12 04:43:51;;;;;;;34.55;15.23;;;;;;;-1.19;100.00;99805.50;6226385;23;20000;-95
2022/12/12 04:46:27;;;;;;;37.08;16.02;;;;;;;-1.12;100.00;99811.28;6225276;23;20019;-96
2022/12/12 04:49:18;;;;;;;;;;;;;;;;;;;;;
2022/12/12 04:52:10;;;;;;;34.35;16.10;;;;;;;-1.37;100.00;99778.81;6252611;23;20039;-96
2022/12/12 04:54:58;;;;;;;41.38;17.50;;;;;;;-1.18;100.00;99808.84;6227032;22;20087;-96
2022/12/12 04:57:56;;;;;;;;;;;;;;;;;;;;;
2022/12/12 05:00:34;;;;;;;41.63;18.10;;;;;;;-1.32;100.00;99784.66;6252825;23;20032;-95
2022/12/12 05:03:32;;;;;;;41.72;17.30;;;;;;;-1.42;100.00;99770.47;6225298;23;20012;-96
2022/12/12 05:06:07;;;;;;;37.95;17.38;;;;;;;-1.25;100.00;99787.06;6224402;23;20458;-96
2022/12/12 05:08:52;;;;;;;36.58;17.20;;;;;;;-1.35;100.00;99769.50;6226113;23;20015;-95
2022/12/12 05:11:23;;;;;;;36.80;16.90;;;;;;;-1.35;100.00;99766.97;6226162;23;20004;-96
2022/12/12 05:14:02;;;;;;;;;;;;;;;;;;;;;
2022/12/12 05:16:53;;;;;;;30.67;14.43;;;;;;;-1.22;100.00;99797.97;6252589;22;19934;-96
2022/12/12 05:19:36;;;;;;;30.50;12.77;;;;;;;-1.46;100.00;99784.09;6225671;23;20079;-95
2022/12/12 05:22:08;;;;;;;38.08;17.08;;;;;;;-1.54;100.00;99790.97;6226368;23;20068;-95
2022/12/12 05:24:34;;;;;;;40.50;16.92;;;;;;;-1.55;100.00;99785.06;6226131;22;20032;-96
2022/12/12 05:27:25;;;;;;;32.65;15.45;;;;;;;-1.52;100.00;99784.19;6225038;23;20027;-96
2022/12/12 05:29:53;;;;;;;34.95;15.93;;;;;;;-1.44;100.00;99796.69;6226374;23;20000;-96
2022/12/12 05:32:38;;;;;;;43.55;18.77;;;;;;;-1.50;100.00;99787.53;6225181;23;20002;-96
2022/12/12 05:35:10;;;;;;;49.22;20.05;;;;;;;-1.31;100.00;99804.03;6226245;23;20008;-96
2022/12/12 05:37:39;;;;;;;40.78;18.98;;;;;;;-1.54;100.00;99776.63;6225434;23;20361;-95
2022/12/12 05:40:16;;;;;;;44.47;18.17;;;;;;;-1.67;100.00;99770.13;6225500;23;20096;-95
2022/12/12 05:42:59;;;;;;;47.30;19.92;;;;;;;-1.58;100.00;99790.19;6225483;23;20104;-96
2022/12/12 05:45:41;;;;;;;;;;;;;;;;;;;;;
2022/12/12 05:48:16;;;;;;;40.85;18.25;;;;;;;-1.32;100.00;99792.25;6187407;23;20097;-95
2022/12/12 05:50:53;;;;;;;41.65;18.73;;;;;;;-1.61;100.00;99779.28;6186648;23;20084;-96
2022/12/12 05:53:21;;;;;;;41.75;18.02;;;;;;;-1.71;100.00;99778.63;6186666;23;20028;-96
2022/12/12 05:55:55;;;;;;;41.38;16.83;;;;;;;-1.61;100.00;99769.16;6164527;23;20009;-96
2022/12/12 05:58:33;;;;;;;38.38;16.23;;;;;;;-1.69;100.00;99769.31;6161413;23;20044;-96
2022/12/12 06:01:05;;;;;;;41.75;17.20;;;;;;;-1.80;100.00;99768.69;6161920;23;20001;-96
2022/12/12 06:03:34;;;;;;;40.33;17.83;;;;;;;-1.48;100.00;99805.22;6163365;23;20009;-96
2022/12/12 06:46:55;;;;;;;;;;;;;;;;;;;;;
2022/12/12 06:50:13;;;;;;;35.22;15.90;;;;;;;-2.40;100.00;99827.78;6050454;23;20015;-96
2022/12/12 06:53:46;;;;;;;;;;;;;;;;;;;;;
2022/12/12 07:03:41;;;;;;;;;;;;;;;;;;;;;
2022/12/12 07:10:49;;;;;;;;;;;;;;;;;;;;;
2022/12/12 07:14:14;;;;;;;;;;;;;;;;;;;;;
2022/12/12 07:25:05;;;;;;;;;;;;;;;;;;;;;
2022/12/12 07:42:36;;;;;;;;;;;;;;;;;;;;;
2022/12/12 11:44:16;;;;;;;;;;;;;;;;;;;;;
2022/12/12 11:47:12;;;;;;;29.52;12.32;;;;;;;1.23;83.84;99744.53;6163457;23;20010;-96
2022/12/12 11:53:31;;;;;;;34.25;14.13;;;;;;;0.60;85.57;99703.19;6166966;23;20455;-96
2022/12/12 11:56:49;;;;;;;32.70;15.05;;;;;;;0.64;86.75;99712.38;6168925;23;20420;-96
2022/12/12 12:00:18;;;;;;;31.33;14.25;;;;;;;0.01;87.69;99705.63;6138857;23;20021;-96
2022/12/12 12:02:47;;;;;;;27.88;13.20;;;;;;;0.40;87.26;99731.66;6145086;23;20005;-96
2022/12/12 12:05:36;;;;;;;28.02;13.52;;;;;;;0.42;87.33;99735.81;6142455;23;20013;-96
2022/12/12 12:08:47;;;;;;;25.17;10.48;;;;;;;0.10;88.52;99730.75;6119023;23;20060;-96
2022/12/12 12:11:29;;;;;;;21.83;12.10;;;;;;;0.07;90.00;99734.19;6141759;23;20010;-96
2022/12/12 12:17:22;;;;;;;27.17;13.40;;;;;;;0.03;91.40;99688.69;6187570;23;20008;-96
2022/12/12 12:20:05;;;;;;;31.77;14.30;;;;;;;0.20;90.28;99716.97;6235183;23;20086;-96
2022/12/12 12:26:13;;;;;;;24.00;11.00;;;;;;;-0.29;90.27;99693.69;6225655;23;20039;-96
2022/12/12 12:29:04;;;;;;;30.17;13.70;;;;;;;-0.37;93.13;99717.56;6230068;23;20084;-96
2022/12/12 12:32:08;;;;;;;31.08;13.50;;;;;;;-0.19;93.08;99706.97;6232799;23;20430;-96
2022/12/12 12:35:10;;;;;;;31.40;14.48;;;;;;;-0.17;92.31;99705.25;6237867;23;20016;-95
2022/12/12 12:38:10;;;;;;;26.77;14.50;;;;;;;-0.38;95.29;99691.38;6232984;23;20008;-96
2022/12/12 12:41:47;;;;;;;30.50;12.23;;;;;;;-0.18;92.03;99675.66;6234712;23;20387;-96
2022/12/12 12:44:36;;;;;;;23.90;10.68;;;;;;;0.11;92.03;99699.44;6176632;23;20086;-96
2022/12/12 12:47:20;;;;;;;44.65;9.63;;;;;;;-0.18;90.68;99698.50;6256539;23;20012;-96
2022/12/12 12:49:57;;;;;;;13.95;7.35;;;;;;;-0.24;91.40;99675.84;6227920;23;20003;-96
2022/12/12 12:52:49;;;;;;;16.10;7.32;;;;;;;-0.23;91.80;99713.00;6226058;23;20007;-96
2022/12/12 12:55:31;;;;;;;17.42;8.70;;;;;;;-0.47;91.71;99671.31;6245848;23;20008;-96
2022/12/12 12:58:02;;;;;;;20.30;9.10;;;;;;;-0.41;91.25;99677.94;6227644;23;20011;-96
2022/12/12 13:00:29;;;;;;;20.50;9.40;;;;;;;-0.72;93.40;99679.53;6228037;23;20449;-96
2022/12/12 13:03:29;;;;;;;25.33;11.10;;;;;;;-0.83;94.04;99667.97;6228316;23;20422;-96
2022/12/12 13:06:35;;;;;;;25.83;11.35;;;;;;;-0.93;94.49;99680.00;6231200;23;20116;-96
2022/12/12 13:09:19;;;;;;;38.00;12.48;;;;;;;-0.67;96.05;99709.81;6109114;23;20002;-96
2022/12/12 13:12:14;;;;;;;75.72;14.52;;;;;;;-0.70;96.13;99671.88;6227989;23;20000;-96
2022/12/12 13:15:01;;;;;;;25.33;12.45;;;;;;;-0.50;94.52;99674.75;6252008;23;20067;-96
2022/12/12 13:17:54;;;;;;;;;;;;;;;;;;;;;
2022/12/12 13:20:35;;;;;;;;;;;;;;;;;;;;;
2022/12/12 13:23:33;;;;;;;24.27;10.77;;;;;;;-0.80;95.22;99703.38;6262745;23;20000;-96
2022/12/12 13:26:21;;;;;;;22.98;11.27;;;;;;;-0.79;95.87;99688.13;6235099;23;20004;-96
2022/12/12 13:29:38;;;;;;;28.80;11.63;;;;;;;-1.18;96.50;99659.47;6236092;23;20030;-96
2022/12/12 17:30:15;;;;;;;41.30;14.60;;;;;;;-2.16;100.00;99698.47;6257158;22;20028;-96
2022/12/12 17:32:44;;;;;;;36.45;15.98;;;;;;;-2.07;100.00;99719.41;6227373;23;20016;-96
2022/12/12 17:35:15;;;;;;;50.97;21.38;;;;;;;-2.10;100.00;99699.22;6230550;22;20000;-96
2022/12/12 17:37:41;;;;;;;49.92;21.00;;;;;;;-2.20;100.00;99696.84;6226192;23;20008;-96
2022/12/12 17:40:12;;;;;;;40.72;15.32;;;;;;;-2.02;100.00;99722.69;6253814;22;19996;-96
2022/12/12 17:42:51;;;;;;;34.15;14.82;;;;;;;-2.33;100.00;99700.47;6222809;22;20020;-96
2022/12/12 17:45:17;;;;;;;36.17;16.00;;;;;;;-2.07;100.00;99739.63;6192099;23;20008;-95
2022/12/12 17:47:42;;;;;;;42.67;19.42;;;;;;;-2.18;100.00;99712.84;6170170;23;20008;-96
2022/12/12 17:50:09;;;;;;;42.60;18.40;;;;;;;-2.05;100.00;99742.97;6167541;23;20037;-95
2022/12/12 17:52:35;;;;;;;40.58;16.48;;;;;;;-2.31;100.00;99703.81;6167843;23;20001;-96
2022/12/12 19:12:54;;;;;;;27.05;12.65;;;;;;;-2.33;100.00;99714.81;6237696;22;20100;-96
2022/12/12 19:16:13;;;;;;;;;;;;;;;;;;;;;
2022/12/12 19:18:50;;;;;;;;;;;;;;;;;;;;;
2022/12/12 19:21:36;;;;;;;;;;;;;;;;;;;;;
2022/12/12 19:26:42;;;;;;;29.08;14.23;;;;;;;-2.32;100.00;99693.72;6227358;22;20012;-95
2022/12/12 19:29:16;;;;;;;35.28;16.25;;;;;;;-2.21;100.00;99715.44;6223404;23;20004;-94
2022/12/12 19:31:44;;;;;;;41.85;16.67;;;;;;;-2.13;100.00;99710.22;6225711;23;20019;-96
2022/12/12 19:34:13;;;;;;;37.95;17.45;;;;;;;-2.19;100.00;99725.53;6225889;23;20004;-95
2022/12/12 19:36:54;;;;;;;39.13;17.52;;;;;;;-2.19;100.00;99701.06;6226059;23;20438;-96
2022/12/12 19:39:20;;;;;;;41.80;18.85;;;;;;;-2.26;100.00;99712.13;6225691;23;20484;-95
2022/12/12 19:41:45;;;;;;;37.55;17.42;;;;;;;-2.17;100.00;99718.72;6222967;23;20000;-96
2022/12/12 19:44:12;;;;;;;37.10;17.33;;;;;;;-1.96;100.00;99750.41;6226015;22;20019;-96
2022/12/12 19:46:42;;;;;;;39.85;17.48;;;;;;;-2.14;100.00;99712.81;6224356;23;20059;-96
2022/12/12 19:49:10;;;;;;;36.97;17.33;;;;;;;-2.08;100.00;99730.38;6224406;23;20008;-96
2022/12/12 19:51:38;;;;;;;37.67;18.00;;;;;;;-2.25;100.00;99713.78;6248745;22;20004;-96
2022/12/12 19:54:09;;;;;;;42.25;18.00;;;;;;;-2.24;100.00;99705.38;6224438;23;19997;-96
2022/12/12 19:56:37;;;;;;;49.00;18.50;;;;;;;-2.03;100.00;99715.97;6224490;23;20011;-96
2022/12/12 19:59:03;;;;;;;37.70;16.70;;;;;;;-2.00;100.00;99744.56;6224868;23;20064;-96
2022/12/12 20:01:34;;;;;;;47.80;19.08;;;;;;;-2.07;100.00;99716.88;6224005;23;20000;-96
2022/12/12 20:04:05;;;;;;;50.00;20.15;;;;;;;-2.00;100.00;99734.47;6225665;23;20036;-96
2022/12/12 20:06:40;;;;;;;37.20;17.50;;;;;;;-2.21;100.00;99707.84;6226815;23;20023;-96
2022/12/12 20:09:09;;;;;;;49.50;20.02;;;;;;;-2.03;100.00;99726.06;6224843;23;20050;-95
2022/12/12 20:11:36;;;;;;;47.90;20.88;;;;;;;-1.95;100.00;99734.38;6226333;23;20008;-95
2022/12/12 20:14:43;;;;;;;44.40;19.92;;;;;;;-2.01;100.00;99724.34;6230847;23;20517;-96
2022/12/12 20:17:09;;;;;;;49.35;18.20;;;;;;;-2.12;100.00;99700.94;6222678;23;20011;-96
2022/12/12 20:19:35;;;;;;;48.95;19.25;;;;;;;-2.16;100.00;99706.06;6228127;23;20010;-96
2022/12/12 20:22:01;;;;;;;42.15;17.42;;;;;;;-2.11;100.00;99708.50;6230176;23;20008;-96
2022/12/12 20:28:05;;;;;;;60.00;23.75;;;;;;;-2.05;100.00;99725.25;6160805;23;20719;-96
2022/12/12 20:30:30;;;;;;;54.58;22.27;;;;;;;-2.09;100.00;99716.09;6228527;23;20008;-95
2022/12/12 20:32:56;;;;;;;49.95;20.05;;;;;;;-1.99;100.00;99725.16;6228425;23;20000;-96
2022/12/12 20:35:25;;;;;;;48.90;19.13;;;;;;;-1.98;100.00;99715.00;6230145;23;20008;-96
2022/12/12 20:37:53;;;;;;;49.22;19.52;;;;;;;-1.87;100.00;99722.41;6230502;22;20016;-96
2022/12/12 20:40:23;;;;;;;47.90;19.30;;;;;;;-1.87;100.00;99724.94;6229455;23;20061;-96
2022/12/12 20:42:49;;;;;;;53.90;19.92;;;;;;;-1.88;100.00;99730.84;6227812;23;20004;-96
2022/12/12 20:45:18;;;;;;;44.88;17.83;;;;;;;-1.81;100.00;99722.28;6227329;23;20007;-96
2022/12/12 20:47:43;;;;;;;39.97;16.38;;;;;;;-1.76;100.00;99730.63;6226154;23;20020;-96
2022/12/12 20:50:09;;;;;;;46.22;19.58;;;;;;;-1.79;100.00;99729.88;6234399;23;19996;-96
2022/12/12 20:53:23;;;;;;;;;;;;;;;;;;;;;
2022/12/12 20:56:10;;;;;;;;;;;;;;;;;;;;;
2022/12/12 21:01:50;;;;;;;40.63;16.23;;;;;;;-1.69;100.00;99715.34;6258442;22;20012;-95
2022/12/12 21:04:38;;;;;;;44.47;16.05;;;;;;;-1.62;100.00;99734.63;6262501;23;20008;-96
2022/12/12 21:10:03;;;;;;;39.35;16.60;;;;;;;-1.87;100.00;99706.41;6258908;23;20000;-96
